createdAt,value
2019-05-29T00:00:26.588Z,1009.03
2019-05-29T00:01:26.550Z,1008.99
2019-05-29T00:02:26.570Z,1009.02
2019-05-29T00:03:26.530Z,1009.02
2019-05-29T00:04:26.518Z,1009.03
2019-05-29T00:05:26.532Z,1009.07
2019-05-29T00:06:26.496Z,1009.08
2019-05-29T00:07:26.491Z,1009.08
2019-05-29T00:08:26.470Z,1009.15
2019-05-29T00:09:26.463Z,1009.10
2019-05-29T00:10:26.456Z,1009.14
2019-05-29T00:11:26.460Z,1009.12
2019-05-29T00:12:26.424Z,1009.14
2019-05-29T00:13:26.414Z,1009.18
2019-05-29T00:14:27.617Z,1009.13
2019-05-29T00:15:26.390Z,1009.09
2019-05-29T00:16:26.394Z,1009.16
2019-05-29T00:17:26.398Z,1009.08
2019-05-29T00:18:26.360Z,1009.15
2019-05-29T00:19:26.346Z,1009.22
2019-05-29T00:20:26.348Z,1009.22
2019-05-29T00:21:26.318Z,1009.28
2019-05-29T00:22:26.328Z,1009.23
2019-05-29T00:23:26.302Z,1009.24
2019-05-29T00:24:26.315Z,1009.30
2019-05-29T00:25:26.298Z,1009.26
2019-05-29T00:26:26.270Z,1009.24
2019-05-29T00:27:26.264Z,1009.24
2019-05-29T00:28:26.259Z,1009.25
2019-05-29T00:29:26.249Z,1009.33
2019-05-29T00:30:26.224Z,1009.32
2019-05-29T00:31:26.212Z,1009.35
2019-05-29T00:32:26.196Z,1009.38
2019-05-29T00:33:26.207Z,1009.34
2019-05-29T00:34:26.183Z,1009.35
2019-05-29T00:35:26.184Z,1009.36
2019-05-29T00:36:26.152Z,1009.33
2019-05-29T00:37:26.148Z,1009.33
2019-05-29T00:38:26.139Z,1009.37
2019-05-29T00:39:26.118Z,1009.43
2019-05-29T00:40:26.107Z,1009.38
2019-05-29T00:41:26.096Z,1009.45
2019-05-29T00:42:26.091Z,1009.42
2019-05-29T00:43:26.072Z,1009.48
2019-05-29T00:44:34.277Z,1009.40
2019-05-29T00:45:27.055Z,1009.42
2019-05-29T00:46:26.048Z,1009.38
2019-05-29T00:47:26.028Z,1009.39
2019-05-29T00:48:26.018Z,1009.42
2019-05-29T00:49:26.015Z,1009.46
2019-05-29T00:50:26.010Z,1009.44
2019-05-29T00:51:25.982Z,1009.41
2019-05-29T00:52:25.977Z,1009.41
2019-05-29T00:53:25.957Z,1009.46
2019-05-29T00:54:25.948Z,1009.43
2019-05-29T00:55:25.947Z,1009.43
2019-05-29T00:56:25.931Z,1009.45
2019-05-29T00:57:25.914Z,1009.50
2019-05-29T00:58:25.906Z,1009.47
2019-05-29T00:59:25.888Z,1009.51
2019-05-29T01:00:25.889Z,1009.54
2019-05-29T01:01:25.886Z,1009.50
2019-05-29T01:02:25.856Z,1009.60
2019-05-29T01:03:25.864Z,1009.65
2019-05-29T01:04:25.838Z,1009.61
2019-05-29T01:05:25.831Z,1009.59
2019-05-29T01:06:25.823Z,1009.63
2019-05-29T01:07:25.800Z,1009.59
2019-05-29T01:08:25.792Z,1009.62
2019-05-29T01:09:25.781Z,1009.67
2019-05-29T01:10:25.760Z,1009.71
2019-05-29T01:11:25.773Z,1009.80
2019-05-29T01:12:25.740Z,1009.79
2019-05-29T01:13:25.732Z,1009.75
2019-05-29T01:14:25.716Z,1009.81
2019-05-29T01:15:25.710Z,1009.80
2019-05-29T01:16:25.722Z,1009.77
2019-05-29T01:17:25.686Z,1009.84
2019-05-29T01:18:25.678Z,1009.89
2019-05-29T01:19:25.668Z,1009.86
2019-05-29T01:20:25.654Z,1009.90
2019-05-29T01:21:25.640Z,1009.95
2019-05-29T01:22:25.639Z,1009.93
2019-05-29T01:23:25.635Z,1009.96
2019-05-29T01:24:25.686Z,1009.95
2019-05-29T01:25:25.592Z,1009.99
2019-05-29T01:26:25.579Z,1009.91
2019-05-29T01:27:25.568Z,1009.92
2019-05-29T01:28:25.559Z,1009.91
2019-05-29T01:29:25.549Z,1009.89
2019-05-29T01:30:25.552Z,1009.95
2019-05-29T01:31:25.525Z,1009.99
2019-05-29T01:32:25.558Z,1009.97
2019-05-29T01:33:25.521Z,1010.01
2019-05-29T01:34:25.532Z,1009.99
2019-05-29T01:35:25.491Z,1010.09
2019-05-29T01:36:25.474Z,1010.06
2019-05-29T01:37:26.447Z,1010.05
2019-05-29T01:38:25.445Z,1010.20
2019-05-29T01:39:25.439Z,1010.09
2019-05-29T01:40:28.315Z,1010.16
2019-05-29T01:41:25.425Z,1010.15
2019-05-29T01:42:25.410Z,1010.23
2019-05-29T01:43:25.389Z,1010.18
2019-05-29T01:44:25.384Z,1010.26
2019-05-29T01:45:25.434Z,1010.26
2019-05-29T01:46:25.355Z,1010.25
2019-05-29T01:47:25.349Z,1010.36
2019-05-29T01:48:25.336Z,1010.36
2019-05-29T01:49:25.321Z,1010.44
2019-05-29T01:50:25.312Z,1010.27
2019-05-29T01:51:25.307Z,1010.37
2019-05-29T01:52:25.290Z,1010.32
2019-05-29T01:53:25.277Z,1010.36
2019-05-29T01:54:25.326Z,1010.37
2019-05-29T01:55:25.253Z,1010.32
2019-05-29T01:56:25.254Z,1010.31
2019-05-29T01:57:25.246Z,1010.33
2019-05-29T01:58:25.224Z,1010.35
2019-05-29T01:59:25.281Z,1010.37
2019-05-29T02:00:25.198Z,1010.40
2019-05-29T02:01:25.191Z,1010.40
2019-05-29T02:02:25.208Z,1010.41
2019-05-29T02:03:25.166Z,1010.40
2019-05-29T02:04:25.333Z,1010.48
2019-05-29T02:05:25.146Z,1010.45
2019-05-29T02:06:25.131Z,1010.45
2019-05-29T02:07:25.118Z,1010.42
2019-05-29T02:08:25.111Z,1010.42
2019-05-29T02:09:25.104Z,1010.48
2019-05-29T02:10:26.254Z,1010.42
2019-05-29T02:11:25.080Z,1010.51
2019-05-29T02:12:25.067Z,1010.50
2019-05-29T02:13:25.051Z,1010.59
2019-05-29T02:14:25.043Z,1010.49
2019-05-29T02:15:32.158Z,1010.57
2019-05-29T02:16:26.934Z,1010.63
2019-05-29T02:17:25.015Z,1010.59
2019-05-29T02:18:25.148Z,1010.51
2019-05-29T02:19:25.040Z,1010.61
2019-05-29T02:20:25.254Z,1010.58
2019-05-29T02:21:24.959Z,1010.61
2019-05-29T02:22:25.104Z,1010.56
2019-05-29T02:23:24.940Z,1010.65
2019-05-29T02:24:25.419Z,1010.69
2019-05-29T02:25:24.917Z,1010.74
2019-05-29T02:26:24.903Z,1010.68
2019-05-29T02:27:25.582Z,1010.78
2019-05-29T02:28:24.881Z,1010.78
2019-05-29T02:29:24.956Z,1010.83
2019-05-29T02:30:27.825Z,1010.77
2019-05-29T02:31:27.041Z,1010.78
2019-05-29T02:32:25.599Z,1010.85
2019-05-29T02:33:26.336Z,1010.83
2019-05-29T02:34:25.539Z,1010.80
2019-05-29T02:35:26.840Z,1010.77
2019-05-29T02:36:26.650Z,1010.82
2019-05-29T02:37:26.118Z,1010.85
2019-05-29T02:38:25.481Z,1010.86
2019-05-29T02:39:25.649Z,1010.83
2019-05-29T02:40:26.359Z,1010.82
2019-05-29T02:41:26.200Z,1010.86
2019-05-29T02:42:25.153Z,1010.89
2019-05-29T02:43:26.022Z,1010.94
2019-05-29T02:44:25.417Z,1010.92
2019-05-29T02:45:45.865Z,1010.93
2019-05-29T02:46:26.411Z,1010.92
2019-05-29T02:47:26.001Z,1010.93
2019-05-29T02:48:25.079Z,1010.92
2019-05-29T02:49:25.773Z,1010.89
2019-05-29T02:50:26.523Z,1010.92
2019-05-29T02:51:26.367Z,1010.87
2019-05-29T02:52:26.109Z,1010.81
2019-05-29T02:53:26.153Z,1010.89
2019-05-29T02:54:25.412Z,1010.93
2019-05-29T02:55:24.641Z,1010.90
2019-05-29T02:56:24.891Z,1010.93
2019-05-29T02:57:24.708Z,1011.00
2019-05-29T02:58:25.820Z,1011.03
2019-05-29T02:59:25.642Z,1010.99
2019-05-29T03:00:25.794Z,1011.03
2019-05-29T03:01:25.522Z,1011.00
2019-05-29T03:02:25.539Z,1011.10
2019-05-29T03:03:26.818Z,1011.12
2019-05-29T03:04:26.177Z,1011.15
2019-05-29T03:05:25.946Z,1011.19
2019-05-29T03:06:26.089Z,1011.13
2019-05-29T03:07:26.142Z,1011.16
2019-05-29T03:08:24.831Z,1011.28
2019-05-29T03:09:24.734Z,1011.25
2019-05-29T03:10:24.817Z,1011.25
2019-05-29T03:11:25.177Z,1011.33
2019-05-29T03:12:25.016Z,1011.22
2019-05-29T03:13:25.522Z,1011.35
2019-05-29T03:14:25.272Z,1011.37
2019-05-29T03:15:25.585Z,1011.42
2019-05-29T03:16:26.095Z,1011.38
2019-05-29T03:17:25.685Z,1011.40
2019-05-29T03:18:25.709Z,1011.50
2019-05-29T03:19:25.796Z,1011.47
2019-05-29T03:20:25.695Z,1011.50
2019-05-29T03:21:25.941Z,1011.52
2019-05-29T03:22:24.273Z,1011.54
2019-05-29T03:23:24.372Z,1011.58
2019-05-29T03:24:24.553Z,1011.66
2019-05-29T03:25:24.402Z,1011.63
2019-05-29T03:26:26.849Z,1011.66
2019-05-29T03:27:25.593Z,1011.64
2019-05-29T03:28:25.608Z,1011.68
2019-05-29T03:29:25.766Z,1011.65
2019-05-29T03:30:26.962Z,1011.74
2019-05-29T03:31:29.924Z,1011.70
2019-05-29T03:32:28.021Z,1011.66
2019-05-29T03:33:30.453Z,1011.73
2019-05-29T03:34:30.457Z,1011.77
2019-05-29T03:35:28.360Z,1011.84
2019-05-29T03:36:28.358Z,1011.78
2019-05-29T03:37:26.271Z,1011.79
2019-05-29T03:38:24.085Z,1011.78
2019-05-29T03:39:24.080Z,1011.85
2019-05-29T03:40:24.067Z,1011.85
2019-05-29T03:41:24.059Z,1011.85
2019-05-29T03:42:24.059Z,1011.93
2019-05-29T03:43:24.141Z,1011.95
2019-05-29T03:44:24.017Z,1011.94
2019-05-29T03:45:24.010Z,1011.96
2019-05-29T03:46:31.600Z,1011.99
2019-05-29T03:47:26.787Z,1012.08
2019-05-29T03:48:25.821Z,1012.06
2019-05-29T03:49:23.969Z,1012.04
2019-05-29T03:50:23.951Z,1012.05
2019-05-29T03:51:23.943Z,1012.11
2019-05-29T03:52:23.955Z,1012.09
2019-05-29T03:53:23.931Z,1012.12
2019-05-29T03:54:23.924Z,1012.15
2019-05-29T03:55:23.896Z,1012.23
2019-05-29T03:56:23.895Z,1012.17
2019-05-29T03:57:23.869Z,1012.16
2019-05-29T03:58:23.867Z,1012.21
2019-05-29T03:59:23.875Z,1012.26
2019-05-29T04:00:23.845Z,1012.21
2019-05-29T04:01:23.879Z,1012.21
2019-05-29T04:02:23.821Z,1012.24
2019-05-29T04:03:23.809Z,1012.25
2019-05-29T04:04:23.799Z,1012.32
2019-05-29T04:05:23.775Z,1012.33
2019-05-29T04:06:23.767Z,1012.30
2019-05-29T04:07:23.765Z,1012.37
2019-05-29T04:08:23.753Z,1012.45
2019-05-29T04:09:23.745Z,1012.41
2019-05-29T04:10:23.735Z,1012.43
2019-05-29T04:11:23.727Z,1012.37
2019-05-29T04:12:23.701Z,1012.43
2019-05-29T04:13:23.689Z,1012.44
2019-05-29T04:14:23.677Z,1012.46
2019-05-29T04:15:23.681Z,1012.47
2019-05-29T04:16:23.683Z,1012.41
2019-05-29T04:17:23.647Z,1012.48
2019-05-29T04:18:23.633Z,1012.51
2019-05-29T04:19:23.625Z,1012.51
2019-05-29T04:20:23.610Z,1012.53
2019-05-29T04:21:23.605Z,1012.61
2019-05-29T04:22:23.590Z,1012.61
2019-05-29T04:23:23.574Z,1012.65
2019-05-29T04:24:23.601Z,1012.76
2019-05-29T04:25:23.556Z,1012.72
2019-05-29T04:26:23.543Z,1012.68
2019-05-29T04:27:23.547Z,1012.77
2019-05-29T04:28:23.517Z,1012.74
2019-05-29T04:29:23.532Z,1012.73
2019-05-29T04:30:23.517Z,1012.75
2019-05-29T04:31:23.485Z,1012.72
2019-05-29T04:32:23.489Z,1012.76
2019-05-29T04:33:23.467Z,1012.71
2019-05-29T04:34:23.450Z,1012.78
2019-05-29T04:35:23.437Z,1012.82
2019-05-29T04:36:23.427Z,1012.75
2019-05-29T04:37:23.425Z,1012.81
2019-05-29T04:38:23.418Z,1012.82
2019-05-29T04:39:23.392Z,1012.81
2019-05-29T04:40:23.383Z,1012.87
2019-05-29T04:41:23.371Z,1012.91
2019-05-29T04:42:23.361Z,1012.91
2019-05-29T04:43:23.356Z,1012.92
2019-05-29T04:44:23.338Z,1013.00
2019-05-29T04:45:23.327Z,1013.02
2019-05-29T04:46:23.316Z,1012.92
2019-05-29T04:47:23.306Z,1012.96
2019-05-29T04:48:23.324Z,1012.96
2019-05-29T04:49:23.320Z,1013.00
2019-05-29T04:50:23.278Z,1012.96
2019-05-29T04:51:23.255Z,1012.96
2019-05-29T04:52:23.249Z,1013.04
2019-05-29T04:53:23.233Z,1013.01
2019-05-29T04:54:23.226Z,1013.07
2019-05-29T04:55:23.244Z,1013.02
2019-05-29T04:56:23.201Z,1012.97
2019-05-29T04:57:23.192Z,1012.97
2019-05-29T04:58:23.175Z,1012.99
2019-05-29T04:59:23.174Z,1013.10
2019-05-29T05:00:23.177Z,1012.95
2019-05-29T05:01:23.139Z,1013.00
2019-05-29T05:02:23.138Z,1013.08
2019-05-29T05:03:23.122Z,1013.08
2019-05-29T05:04:23.124Z,1013.20
2019-05-29T05:05:23.109Z,1013.18
2019-05-29T05:06:23.083Z,1013.21
2019-05-29T05:07:23.168Z,1013.21
2019-05-29T05:08:23.229Z,1013.21
2019-05-29T05:09:23.079Z,1013.18
2019-05-29T05:10:23.043Z,1013.22
2019-05-29T05:11:23.049Z,1013.26
2019-05-29T05:12:23.018Z,1013.23
2019-05-29T05:13:23.014Z,1013.24
2019-05-29T05:14:22.997Z,1013.31
2019-05-29T05:15:22.998Z,1013.39
2019-05-29T05:16:22.976Z,1013.39
2019-05-29T05:17:26.182Z,1013.45
2019-05-29T05:18:22.981Z,1013.51
2019-05-29T05:19:22.960Z,1013.49
2019-05-29T05:20:22.934Z,1013.37
2019-05-29T05:21:22.920Z,1013.34
2019-05-29T05:22:22.912Z,1013.47
2019-05-29T05:23:43.916Z,1013.43
2019-05-29T05:24:22.886Z,1013.42
2019-05-29T05:25:22.874Z,1013.59
2019-05-29T05:26:22.866Z,1013.48
2019-05-29T05:27:22.859Z,1013.44
2019-05-29T05:28:22.853Z,1013.45
2019-05-29T05:29:22.825Z,1013.32
2019-05-29T05:30:22.818Z,1013.46
2019-05-29T05:31:22.800Z,1013.45
2019-05-29T05:32:22.808Z,1013.47
2019-05-29T05:33:22.835Z,1013.45
2019-05-29T05:34:22.799Z,1013.54
2019-05-29T05:35:22.759Z,1013.53
2019-05-29T05:36:22.746Z,1013.56
2019-05-29T05:37:22.755Z,1013.53
2019-05-29T05:38:22.730Z,1013.57
2019-05-29T05:39:23.227Z,1013.60
2019-05-29T05:40:22.705Z,1013.64
2019-05-29T05:41:22.693Z,1013.60
2019-05-29T05:42:22.678Z,1013.73
2019-05-29T05:43:24.491Z,1013.59
2019-05-29T05:44:22.665Z,1013.69
2019-05-29T05:45:22.656Z,1013.67
2019-05-29T05:46:24.740Z,1013.70
2019-05-29T05:47:22.647Z,1013.64
2019-05-29T05:48:22.702Z,1013.70
2019-05-29T05:49:22.596Z,1013.66
2019-05-29T05:50:22.598Z,1013.72
2019-05-29T05:51:22.603Z,1013.78
2019-05-29T05:52:22.565Z,1013.82
2019-05-29T05:53:22.557Z,1013.78
2019-05-29T05:54:22.541Z,1013.84
2019-05-29T05:55:22.540Z,1013.84
2019-05-29T05:56:22.538Z,1013.76
2019-05-29T05:57:22.514Z,1013.88
2019-05-29T05:58:22.498Z,1013.82
2019-05-29T05:59:22.502Z,1013.84
2019-05-29T06:00:22.472Z,1013.88
2019-05-29T06:01:22.474Z,1013.89
2019-05-29T06:02:22.602Z,1013.85
2019-05-29T06:03:22.494Z,1013.92
2019-05-29T06:04:22.430Z,1013.91
2019-05-29T06:05:22.418Z,1013.96
2019-05-29T06:06:22.414Z,1013.98
2019-05-29T06:07:22.422Z,1013.98
2019-05-29T06:08:22.386Z,1014.04
2019-05-29T06:09:22.384Z,1013.96
2019-05-29T06:10:22.371Z,1014.12
2019-05-29T06:11:22.361Z,1014.04
2019-05-29T06:12:22.345Z,1014.06
2019-05-29T06:13:22.324Z,1014.13
2019-05-29T06:14:22.316Z,1014.19
2019-05-29T06:15:22.308Z,1014.17
2019-05-29T06:16:22.377Z,1014.23
2019-05-29T06:17:22.286Z,1014.20
2019-05-29T06:18:22.276Z,1014.29
2019-05-29T06:19:22.264Z,1014.22
2019-05-29T06:20:22.407Z,1014.27
2019-05-29T06:21:22.235Z,1014.31
2019-05-29T06:22:22.230Z,1014.29
2019-05-29T06:23:22.227Z,1014.30
2019-05-29T06:24:22.225Z,1014.26
2019-05-29T06:25:22.207Z,1014.28
2019-05-29T06:26:22.177Z,1014.26
2019-05-29T06:27:22.172Z,1014.26
2019-05-29T06:28:22.158Z,1014.28
2019-05-29T06:29:22.154Z,1014.41
2019-05-29T06:30:22.138Z,1014.31
2019-05-29T06:31:22.122Z,1014.35
2019-05-29T06:32:22.109Z,1014.31
2019-05-29T06:33:22.208Z,1014.31
2019-05-29T06:34:22.089Z,1014.27
2019-05-29T06:35:22.090Z,1014.28
2019-05-29T06:36:22.222Z,1014.34
2019-05-29T06:37:22.060Z,1014.48
2019-05-29T06:38:22.066Z,1014.39
2019-05-29T06:39:22.032Z,1014.44
2019-05-29T06:40:22.070Z,1014.42
2019-05-29T06:41:22.014Z,1014.45
2019-05-29T06:42:22.000Z,1014.43
2019-05-29T06:43:21.989Z,1014.51
2019-05-29T06:44:21.983Z,1014.62
2019-05-29T06:45:21.964Z,1014.56
2019-05-29T06:46:21.969Z,1014.52
2019-05-29T06:47:21.949Z,1014.60
2019-05-29T06:48:40.629Z,1014.57
2019-05-29T06:49:22.919Z,1014.53
2019-05-29T06:50:21.910Z,1014.66
2019-05-29T06:51:21.901Z,1014.55
2019-05-29T06:52:21.890Z,1014.63
2019-05-29T06:53:21.879Z,1014.63
2019-05-29T06:54:21.875Z,1014.60
2019-05-29T06:55:21.862Z,1014.64
2019-05-29T06:56:21.844Z,1014.70
2019-05-29T06:57:25.794Z,1014.68
2019-05-29T06:58:21.828Z,1014.70
2019-05-29T06:59:21.812Z,1014.76
2019-05-29T07:00:34.886Z,1014.70
2019-05-29T07:01:22.788Z,1014.80
2019-05-29T07:02:21.782Z,1014.83
2019-05-29T07:03:21.774Z,1014.79
2019-05-29T07:04:21.755Z,1014.82
2019-05-29T07:05:21.742Z,1014.82
2019-05-29T07:06:21.737Z,1014.82
2019-05-29T07:07:21.724Z,1014.82
2019-05-29T07:08:37.594Z,1014.87
2019-05-29T07:09:22.700Z,1014.78
2019-05-29T07:10:21.688Z,1014.84
2019-05-29T07:11:21.675Z,1014.84
2019-05-29T07:12:21.664Z,1014.90
2019-05-29T07:13:21.661Z,1014.85
2019-05-29T07:14:21.662Z,1014.94
2019-05-29T07:15:21.634Z,1014.98
2019-05-29T07:16:21.632Z,1014.92
2019-05-29T07:17:21.616Z,1014.96
2019-05-29T07:18:21.605Z,1015.08
2019-05-29T07:19:34.370Z,1015.10
2019-05-29T07:20:22.580Z,1015.07
2019-05-29T07:21:21.566Z,1015.02
2019-05-29T07:22:21.558Z,1015.02
2019-05-29T07:23:21.565Z,1015.00
2019-05-29T07:24:21.546Z,1015.06
2019-05-29T07:25:21.530Z,1015.02
2019-05-29T07:26:21.531Z,1015.04
2019-05-29T07:27:21.496Z,1015.13
2019-05-29T07:28:21.505Z,1015.10
2019-05-29T07:29:21.476Z,1015.13
2019-05-29T07:30:21.484Z,1015.16
2019-05-29T07:31:21.465Z,1015.09
2019-05-29T07:32:21.445Z,1015.11
2019-05-29T07:33:21.433Z,1015.17
2019-05-29T07:34:21.424Z,1015.21
2019-05-29T07:35:21.409Z,1015.25
2019-05-29T07:36:21.402Z,1015.24
2019-05-29T07:37:21.406Z,1015.20
2019-05-29T07:38:21.380Z,1015.22
2019-05-29T07:39:21.366Z,1015.27
2019-05-29T07:40:21.364Z,1015.25
2019-05-29T07:41:21.344Z,1015.33
2019-05-29T07:42:21.332Z,1015.38
2019-05-29T07:43:21.315Z,1015.27
2019-05-29T07:44:21.304Z,1015.27
2019-05-29T07:45:21.292Z,1015.32
2019-05-29T07:46:21.278Z,1015.33
2019-05-29T07:47:21.277Z,1015.38
2019-05-29T07:48:21.260Z,1015.38
2019-05-29T07:49:35.871Z,1015.35
2019-05-29T07:50:22.244Z,1015.36
2019-05-29T07:51:21.228Z,1015.34
2019-05-29T07:52:21.225Z,1015.25
2019-05-29T07:53:21.204Z,1015.28
2019-05-29T07:54:21.190Z,1015.32
2019-05-29T07:55:23.668Z,1015.33
2019-05-29T07:56:22.890Z,1015.37
2019-05-29T07:57:21.166Z,1015.48
2019-05-29T07:58:21.164Z,1015.35
2019-05-29T07:59:21.194Z,1015.31
2019-05-29T08:00:21.121Z,1015.41
2019-05-29T08:01:21.112Z,1015.38
2019-05-29T08:02:21.123Z,1015.42
2019-05-29T08:03:21.086Z,1015.36
2019-05-29T08:04:21.157Z,1015.44
2019-05-29T08:05:21.064Z,1015.54
2019-05-29T08:06:21.048Z,1015.48
2019-05-29T08:07:21.043Z,1015.42
2019-05-29T08:08:21.028Z,1015.49
2019-05-29T08:09:21.041Z,1015.46
2019-05-29T08:10:21.043Z,1015.46
2019-05-29T08:11:20.997Z,1015.50
2019-05-29T08:12:20.986Z,1015.48
2019-05-29T08:13:20.976Z,1015.41
2019-05-29T08:14:20.963Z,1015.54
2019-05-29T08:15:20.960Z,1015.52
2019-05-29T08:16:20.935Z,1015.47
2019-05-29T08:17:20.928Z,1015.59
2019-05-29T08:18:20.919Z,1015.54
2019-05-29T08:19:20.966Z,1015.56
2019-05-29T08:20:20.902Z,1015.60
2019-05-29T08:21:20.906Z,1015.54
2019-05-29T08:22:33.788Z,1015.56
2019-05-29T08:23:21.859Z,1015.57
2019-05-29T08:24:24.742Z,1015.57
2019-05-29T08:25:20.862Z,1015.62
2019-05-29T08:26:20.833Z,1015.76
2019-05-29T08:27:20.808Z,1015.61
2019-05-29T08:28:20.806Z,1015.62
2019-05-29T08:29:20.788Z,1015.63
2019-05-29T08:30:20.783Z,1015.65
2019-05-29T08:31:20.771Z,1015.56
2019-05-29T08:32:20.760Z,1015.68
2019-05-29T08:33:20.773Z,1015.72
2019-05-29T08:34:20.735Z,1015.73
2019-05-29T08:35:20.727Z,1015.72
2019-05-29T08:36:20.712Z,1015.68
2019-05-29T08:37:20.699Z,1015.76
2019-05-29T08:38:20.683Z,1015.67
2019-05-29T08:39:35.572Z,1015.76
2019-05-29T08:40:21.660Z,1015.71
2019-05-29T08:41:20.730Z,1015.77
2019-05-29T08:42:23.567Z,1015.74
2019-05-29T08:43:20.663Z,1015.80
2019-05-29T08:44:20.620Z,1015.76
2019-05-29T08:45:20.600Z,1015.75
2019-05-29T08:46:20.600Z,1015.82
2019-05-29T08:47:20.584Z,1015.95
2019-05-29T08:48:20.587Z,1015.84
2019-05-29T08:49:20.586Z,1015.80
2019-05-29T08:50:20.559Z,1015.83
2019-05-29T08:51:20.537Z,1015.86
2019-05-29T08:52:20.527Z,1015.83
2019-05-29T08:53:20.531Z,1015.85
2019-05-29T08:54:23.826Z,1015.76
2019-05-29T08:55:20.513Z,1015.87
2019-05-29T08:56:20.483Z,1015.82
2019-05-29T08:57:20.472Z,1015.82
2019-05-29T08:58:20.461Z,1015.87
2019-05-29T08:59:20.450Z,1015.90
2019-05-29T09:00:20.435Z,1015.93
2019-05-29T09:01:20.419Z,1015.97
2019-05-29T09:02:20.414Z,1015.95
2019-05-29T09:03:20.407Z,1016.01
2019-05-29T09:04:20.395Z,1016.06
2019-05-29T09:05:20.386Z,1016.02
2019-05-29T09:06:20.392Z,1016.00
2019-05-29T09:07:20.360Z,1015.93
2019-05-29T09:08:20.341Z,1016.17
2019-05-29T09:09:20.333Z,1016.01
2019-05-29T09:10:20.319Z,1016.01
2019-05-29T09:11:20.325Z,1016.00
2019-05-29T09:12:20.311Z,1016.00
2019-05-29T09:13:20.285Z,1016.04
2019-05-29T09:14:20.285Z,1016.12
2019-05-29T09:15:21.738Z,1016.05
2019-05-29T09:16:20.272Z,1016.05
2019-05-29T09:17:20.241Z,1016.07
2019-05-29T09:18:21.526Z,1015.98
2019-05-29T09:19:21.072Z,1016.11
2019-05-29T09:20:32.056Z,1016.20
2019-05-29T09:21:21.228Z,1016.05
2019-05-29T09:22:20.993Z,1016.05
2019-05-29T09:23:20.922Z,1016.02
2019-05-29T09:24:20.908Z,1016.06
2019-05-29T09:25:21.172Z,1015.99
2019-05-29T09:26:23.889Z,1015.95
2019-05-29T09:27:21.270Z,1016.09
2019-05-29T09:28:21.787Z,1015.99
2019-05-29T09:29:23.311Z,1016.06
2019-05-29T09:30:20.347Z,1016.09
2019-05-29T09:31:20.379Z,1016.05
2019-05-29T09:32:40.887Z,1016.06
2019-05-29T09:33:21.857Z,1016.06
2019-05-29T09:34:20.576Z,1016.09
2019-05-29T09:35:21.568Z,1016.09
2019-05-29T09:36:20.728Z,1016.14
2019-05-29T09:37:20.481Z,1016.10
2019-05-29T09:38:20.979Z,1016.15
2019-05-29T09:39:21.066Z,1016.16
2019-05-29T09:40:20.999Z,1016.28
2019-05-29T09:41:21.707Z,1016.22
2019-05-29T09:42:20.700Z,1016.26
2019-05-29T09:43:23.148Z,1016.28
2019-05-29T09:44:36.018Z,1016.24
2019-05-29T09:45:21.560Z,1016.21
2019-05-29T09:46:20.236Z,1016.26
2019-05-29T09:47:20.273Z,1016.18
2019-05-29T09:48:23.325Z,1016.18
2019-05-29T09:49:21.814Z,1016.16
2019-05-29T09:50:22.742Z,1016.14
2019-05-29T09:51:21.558Z,1016.21
2019-05-29T09:52:19.845Z,1016.24
2019-05-29T09:53:19.838Z,1016.12
2019-05-29T09:54:19.947Z,1016.13
2019-05-29T09:55:19.828Z,1016.24
2019-05-29T09:56:19.802Z,1016.33
2019-05-29T09:57:19.788Z,1016.37
2019-05-29T09:58:19.854Z,1016.31
2019-05-29T09:59:19.765Z,1016.36
2019-05-29T10:00:19.767Z,1016.34
2019-05-29T10:01:24.133Z,1016.39
2019-05-29T10:02:20.746Z,1016.31
2019-05-29T10:03:19.717Z,1016.30
2019-05-29T10:04:19.709Z,1016.28
2019-05-29T10:05:19.700Z,1016.42
2019-05-29T10:06:19.691Z,1016.40
2019-05-29T10:07:19.698Z,1016.37
2019-05-29T10:08:19.669Z,1016.39
2019-05-29T10:09:19.654Z,1016.53
2019-05-29T10:10:19.667Z,1016.50
2019-05-29T10:11:19.634Z,1016.47
2019-05-29T10:12:19.705Z,1016.45
2019-05-29T10:13:19.612Z,1016.40
2019-05-29T10:14:19.600Z,1016.38
2019-05-29T10:15:19.586Z,1016.39
2019-05-29T10:16:19.605Z,1016.36
2019-05-29T10:17:19.571Z,1016.42
2019-05-29T10:18:31.797Z,1016.45
2019-05-29T10:19:20.541Z,1016.46
2019-05-29T10:20:19.530Z,1016.42
2019-05-29T10:21:19.521Z,1016.42
2019-05-29T10:22:19.509Z,1016.40
2019-05-29T10:23:20.168Z,1016.48
2019-05-29T10:24:19.479Z,1016.60
2019-05-29T10:25:19.467Z,1016.52
2019-05-29T10:26:19.455Z,1016.56
2019-05-29T10:27:19.458Z,1016.51
2019-05-29T10:28:19.438Z,1016.43
2019-05-29T10:29:19.439Z,1016.40
2019-05-29T10:30:19.423Z,1016.45
2019-05-29T10:31:19.407Z,1016.46
2019-05-29T10:32:19.394Z,1016.50
2019-05-29T10:33:19.397Z,1016.48
2019-05-29T10:34:19.378Z,1016.50
2019-05-29T10:35:19.360Z,1016.49
2019-05-29T10:36:19.383Z,1016.53
2019-05-29T10:37:19.395Z,1016.49
2019-05-29T10:38:19.336Z,1016.59
2019-05-29T10:39:19.340Z,1016.60
2019-05-29T10:40:19.310Z,1016.60
2019-05-29T10:41:19.312Z,1016.49
2019-05-29T10:42:20.763Z,1016.55
2019-05-29T10:43:33.237Z,1016.57
2019-05-29T10:44:20.279Z,1016.65
2019-05-29T10:45:19.304Z,1016.51
2019-05-29T10:46:19.230Z,1016.60
2019-05-29T10:47:19.224Z,1016.53
2019-05-29T10:48:19.212Z,1016.63
2019-05-29T10:49:19.194Z,1016.62
2019-05-29T10:50:19.193Z,1016.61
2019-05-29T10:51:19.243Z,1016.51
2019-05-29T10:52:19.165Z,1016.62
2019-05-29T10:53:19.209Z,1016.68
2019-05-29T10:54:19.143Z,1016.59
2019-05-29T10:55:19.131Z,1016.60
2019-05-29T10:56:21.195Z,1016.58
2019-05-29T10:57:19.107Z,1016.70
2019-05-29T10:58:19.122Z,1016.61
2019-05-29T10:59:19.085Z,1016.65
2019-05-29T11:00:19.084Z,1016.66
2019-05-29T11:01:19.091Z,1016.63
2019-05-29T11:02:19.068Z,1016.58
2019-05-29T11:03:19.061Z,1016.58
2019-05-29T11:04:19.029Z,1016.60
2019-05-29T11:05:19.058Z,1016.60
2019-05-29T11:06:19.011Z,1016.56
2019-05-29T11:07:19.007Z,1016.63
2019-05-29T11:08:18.984Z,1016.56
2019-05-29T11:09:18.972Z,1016.56
2019-05-29T11:10:18.963Z,1016.62
2019-05-29T11:11:18.951Z,1016.65
2019-05-29T11:12:18.937Z,1016.60
2019-05-29T11:13:18.931Z,1016.68
2019-05-29T11:14:18.916Z,1016.61
2019-05-29T11:15:21.668Z,1016.64
2019-05-29T11:16:18.889Z,1016.76
2019-05-29T11:17:18.883Z,1016.67
2019-05-29T11:18:18.874Z,1016.66
2019-05-29T11:19:18.859Z,1016.60
2019-05-29T11:20:18.848Z,1016.55
2019-05-29T11:21:18.841Z,1016.60
2019-05-29T11:22:26.067Z,1016.67
2019-05-29T11:23:19.826Z,1016.65
2019-05-29T11:24:18.811Z,1016.66
2019-05-29T11:25:23.536Z,1016.68
2019-05-29T11:26:19.780Z,1016.74
2019-05-29T11:27:18.767Z,1016.56
2019-05-29T11:28:18.780Z,1016.63
2019-05-29T11:29:18.757Z,1016.66
2019-05-29T11:30:18.755Z,1016.52
2019-05-29T11:31:18.727Z,1016.63
2019-05-29T11:32:18.719Z,1016.57
2019-05-29T11:33:18.720Z,1016.61
2019-05-29T11:34:18.685Z,1016.60
2019-05-29T11:35:18.682Z,1016.59
2019-05-29T11:36:18.705Z,1016.59
2019-05-29T11:37:18.659Z,1016.54
2019-05-29T11:38:18.643Z,1016.62
2019-05-29T11:39:18.659Z,1016.64
2019-05-29T11:40:18.628Z,1016.55
2019-05-29T11:41:26.217Z,1016.49
2019-05-29T11:42:27.527Z,1016.51
2019-05-29T11:43:19.604Z,1016.62
2019-05-29T11:44:18.580Z,1016.54
2019-05-29T11:45:18.574Z,1016.54
2019-05-29T11:46:18.609Z,1016.51
2019-05-29T11:47:18.613Z,1016.50
2019-05-29T11:48:18.533Z,1016.54
2019-05-29T11:49:18.517Z,1016.51
2019-05-29T11:50:20.050Z,1016.62
2019-05-29T11:51:18.500Z,1016.65
2019-05-29T11:52:24.551Z,1016.65
2019-05-29T11:53:19.537Z,1016.57
2019-05-29T11:54:18.471Z,1016.70
2019-05-29T11:55:18.452Z,1016.75
2019-05-29T11:56:18.438Z,1016.59
2019-05-29T11:57:18.424Z,1016.63
2019-05-29T11:58:30.526Z,1016.56
2019-05-29T11:59:19.413Z,1016.54
2019-05-29T12:00:20.610Z,1016.64
2019-05-29T12:01:18.381Z,1016.67
2019-05-29T12:02:18.406Z,1016.59
2019-05-29T12:03:18.378Z,1016.57
2019-05-29T12:04:26.489Z,1016.60
2019-05-29T12:05:19.538Z,1016.55